Montopolis, Texas
Current Conditions -  °F | °C
As of 11:53 AM on Thursday 29 Jan 2015 (Local Time) from KAUS Reporting Station
Scattered Clouds Scattered Clouds  
Wind Chill: 21°   Ceiling: Unl
Heat Index: 21°   Visibility: 10mi
Dew Point: 13°   Wind: 12mph
Humidity: 59%   Direction: 190°S
Pressure: 30.25"   Gusts: NA
Location:  30.2284°N, 97.7133°W
Report Text: KAUS 291753Z 19010KT 10SM FEW031 SCT150 21/13 A3025 RMK AO2 SLP239 T02110128 10211 20111 50005
Loading
Personal Weather Stations






























Interactive Weather Map New forecast layout! Learn more

10-Day Weather Forecast

Advertisements
Track Severe Weather on mobile